createdAt,value
2019-03-21T00:01:43.531Z,101841.88
2019-03-21T00:04:14.713Z,101840.88
2019-03-21T00:06:44.424Z,101841.17
2019-03-21T00:09:16.146Z,101836.27
2019-03-21T00:12:06.149Z,101840.46
2019-03-21T00:14:54.195Z,101833.06
2019-03-21T00:17:26.899Z,101841.66
2019-03-21T00:19:56.713Z,101847.75
2019-03-21T00:22:26.428Z,101856.05
2019-03-21T00:24:56.243Z,101850.05
2019-03-21T00:27:26.047Z,101847.66
2019-03-21T00:29:55.917Z,101848.76
2019-03-21T00:32:25.709Z,101851.25
2019-03-21T00:34:55.489Z,101858.84
2019-03-21T00:37:25.892Z,101862.23
2019-03-21T00:39:55.701Z,101847.73
2019-03-21T00:42:25.439Z,101822.45
2019-03-21T00:44:55.257Z,101840.13
2019-03-21T00:47:25.186Z,101847.13
2019-03-21T00:49:54.908Z,101845.62
2019-03-21T00:52:24.717Z,101845.23
2019-03-21T00:54:54.481Z,101841.52
2019-03-21T00:57:24.242Z,101836.52
2019-03-21T00:59:54.029Z,101827.33
2019-03-21T01:02:23.813Z,101824.41
2019-03-21T01:04:53.610Z,101829.90
2019-03-21T01:07:23.480Z,101828.50
2019-03-21T01:09:53.355Z,101831.09
2019-03-21T01:12:23.095Z,101838.09
2019-03-21T01:14:52.825Z,101835.39
2019-03-21T01:17:22.568Z,101824.89
2019-03-21T01:19:52.383Z,101812.41
2019-03-21T01:22:22.107Z,101815.52
2019-03-21T01:24:51.870Z,101814.21
2019-03-21T01:27:21.593Z,101815.72
2019-03-21T01:29:51.519Z,101812.23
2019-03-21T01:32:21.287Z,101815.62
2019-03-21T01:34:51.071Z,101800.63
2019-03-21T01:37:20.885Z,101799.81
2019-03-21T01:39:50.666Z,101789.42
2019-03-21T01:42:20.386Z,101778.53
2019-03-21T01:44:50.170Z,101781.32
2019-03-21T01:47:19.975Z,101788.11
2019-03-21T01:49:49.691Z,101789.20
2019-03-21T01:52:19.425Z,101795.08
2019-03-21T01:54:49.220Z,101793.67
2019-03-21T01:57:19.129Z,101794.37
2019-03-21T01:59:48.847Z,101787.38
2019-03-21T02:02:18.636Z,101791.08
2019-03-21T02:04:48.371Z,101780.09
2019-03-21T02:07:18.089Z,101778.50
2019-03-21T02:09:48.100Z,101772.01
2019-03-21T02:12:17.885Z,101773.81
2019-03-21T02:14:52.119Z,101770.20
2019-03-21T02:17:19.084Z,101768.52
2019-03-21T02:19:48.815Z,101764.22
2019-03-21T02:22:18.565Z,101762.81
2019-03-21T02:24:48.339Z,101766.81
2019-03-21T02:27:18.081Z,101772.11
2019-03-21T02:29:47.806Z,101777.30
2019-03-21T02:32:17.743Z,101765.12
2019-03-21T02:34:47.460Z,101761.12
2019-03-21T02:37:17.184Z,101758.82
2019-03-21T02:39:58.809Z,101754.53
2019-03-21T02:42:18.509Z,101751.93
2019-03-21T02:44:48.331Z,101748.04
2019-03-21T02:47:18.197Z,101738.95
2019-03-21T02:49:48.059Z,101740.75
2019-03-21T02:52:17.783Z,101737.26
2019-03-21T02:54:47.819Z,101732.67
2019-03-21T02:57:17.547Z,101737.47
2019-03-21T02:59:47.327Z,101734.97
2019-03-21T03:02:17.039Z,101732.48
2019-03-21T03:04:46.820Z,101727.29
2019-03-21T03:07:16.540Z,101718.70
2019-03-21T03:09:46.643Z,101717.11
2019-03-21T03:12:16.578Z,101713.32
2019-03-21T03:14:46.286Z,101709.83
2019-03-21T03:17:16.252Z,101713.22
2019-03-21T03:19:46.018Z,101714.52
2019-03-21T03:22:15.769Z,101708.82
2019-03-21T03:24:45.663Z,101704.53
2019-03-21T03:27:15.376Z,101700.13
2019-03-21T03:29:45.144Z,101697.14
2019-03-21T03:32:14.932Z,101695.44
2019-03-21T03:34:44.757Z,101693.64
2019-03-21T03:37:14.472Z,101689.75
2019-03-21T03:39:44.238Z,101685.56
2019-03-21T03:42:13.966Z,101682.86
2019-03-21T03:44:43.723Z,101678.56
2019-03-21T03:47:13.641Z,101677.27
2019-03-21T03:49:43.371Z,101665.09
2019-03-21T03:52:13.102Z,101663.39
2019-03-21T03:54:42.978Z,101660.69
2019-03-21T03:57:13.237Z,101648.91
2019-03-21T03:59:42.947Z,101564.41
2019-03-21T04:02:12.729Z,101644.41
2019-03-21T04:04:42.565Z,101642.62
2019-03-21T04:07:12.294Z,101633.93
2019-03-21T04:09:42.078Z,101626.44
2019-03-21T04:12:12.590Z,101627.34
2019-03-21T04:14:42.485Z,101620.85
2019-03-21T04:17:12.329Z,101621.65
2019-03-21T04:19:42.082Z,101631.23
2019-03-21T04:22:11.863Z,101635.12
2019-03-21T04:24:41.649Z,101646.80
2019-03-21T04:27:11.518Z,101646.11
2019-03-21T04:29:41.251Z,101628.44
2019-03-21T04:32:11.012Z,101625.15
2019-03-21T04:34:40.746Z,101623.45
2019-03-21T04:37:10.587Z,101626.05
2019-03-21T04:39:40.393Z,101627.64
2019-03-21T04:42:10.146Z,101622.15
2019-03-21T04:44:39.901Z,101619.35
2019-03-21T04:47:09.687Z,101614.95
2019-03-21T04:49:39.395Z,101618.25
2019-03-21T04:52:09.130Z,101605.17
2019-03-21T04:54:38.941Z,101606.77
2019-03-21T04:57:08.674Z,101605.37
2019-03-21T04:59:38.653Z,101606.96
2019-03-21T05:02:08.403Z,101596.69
2019-03-21T05:04:38.207Z,101607.77
2019-03-21T05:07:07.935Z,101600.38
2019-03-21T05:09:37.714Z,101599.77
2019-03-21T05:12:07.460Z,101594.98
2019-03-21T05:14:37.351Z,101590.98
2019-03-21T05:17:07.121Z,101584.00
2019-03-21T05:19:36.834Z,101578.91
2019-03-21T05:22:06.542Z,101578.91
2019-03-21T05:24:36.319Z,101581.21
2019-03-21T05:27:06.065Z,101585.20
2019-03-21T05:29:36.044Z,101582.31
2019-03-21T05:32:05.803Z,101587.20
2019-03-21T05:34:35.535Z,101581.81
2019-03-21T05:37:05.283Z,101589.60
2019-03-21T05:39:35.194Z,101586.91
2019-03-21T05:42:08.623Z,101577.02
2019-03-21T05:44:41.697Z,101581.71
2019-03-21T05:47:11.453Z,101586.50
2019-03-21T05:49:41.179Z,101585.00
2019-03-21T05:52:11.999Z,101572.31
2019-03-21T05:54:41.871Z,101567.81
2019-03-21T05:57:11.607Z,101573.39
2019-03-21T05:59:41.422Z,101567.09
2019-03-21T06:02:11.279Z,101575.08
2019-03-21T06:04:41.972Z,101569.27
2019-03-21T06:07:16.310Z,101564.27
2019-03-21T06:09:46.042Z,101561.96
2019-03-21T06:12:15.784Z,101568.25
2019-03-21T06:14:49.953Z,101559.34
2019-03-21T06:17:19.682Z,101562.04
2019-03-21T06:20:11.426Z,101555.64
2019-03-21T06:23:15.914Z,101566.03
2019-03-21T06:26:07.657Z,101564.42
2019-03-21T06:28:37.409Z,101559.82
2019-03-21T06:31:07.202Z,101555.52
2019-03-21T06:33:36.987Z,101544.33
2019-03-21T06:36:06.715Z,101545.72
2019-03-21T06:38:36.444Z,101543.22
2019-03-21T06:41:06.294Z,101536.50
2019-03-21T06:43:36.013Z,101536.69
2019-03-21T06:46:05.846Z,101534.38
2019-03-21T06:48:35.607Z,101103.45
2019-03-21T06:51:05.382Z,101526.14
2019-03-21T06:53:35.115Z,101519.48
2019-03-21T06:56:04.875Z,101512.55
2019-03-21T06:58:34.600Z,101514.80
2019-03-21T07:01:04.365Z,101506.55
2019-03-21T07:03:34.215Z,101494.22
2019-03-21T07:06:03.991Z,101497.50
2019-03-21T07:08:33.731Z,101483.77
2019-03-21T07:11:03.492Z,101481.75
2019-03-21T07:13:33.207Z,101470.63
2019-03-21T07:16:02.936Z,101476.01
2019-03-21T07:18:32.681Z,101467.16
2019-03-21T07:21:02.446Z,101465.32
2019-03-21T07:23:32.272Z,101460.61
2019-03-21T07:26:02.054Z,101456.39
2019-03-21T07:28:31.795Z,101461.77
2019-03-21T07:31:01.841Z,101447.63
2019-03-21T07:33:31.823Z,101456.68
2019-03-21T07:36:01.556Z,101452.17
2019-03-21T07:38:31.292Z,101433.31
2019-03-21T07:41:01.077Z,101439.09
2019-03-21T07:43:30.855Z,101440.66
2019-03-21T07:46:01.190Z,101441.89
2019-03-21T07:48:31.057Z,101425.71
2019-03-21T07:51:00.906Z,101416.04
2019-03-21T07:53:30.698Z,101410.76
2019-03-21T07:56:00.528Z,101411.00
2019-03-21T07:58:30.339Z,101416.05
2019-03-21T08:01:00.315Z,101402.47
2019-03-21T08:03:30.167Z,101398.89
2019-03-21T08:05:59.980Z,101390.91
2019-03-21T08:08:29.836Z,101388.55
2019-03-21T08:10:59.668Z,101392.77
2019-03-21T08:13:29.480Z,101399.28
2019-03-21T08:15:59.372Z,101392.76
2019-03-21T08:18:29.151Z,101386.07
2019-03-21T08:21:00.126Z,101381.17
2019-03-21T08:23:30.051Z,101378.06
2019-03-21T08:26:00.080Z,101372.41
2019-03-21T08:28:29.886Z,101381.52
2019-03-21T08:31:19.220Z,101386.97
2019-03-21T08:33:49.147Z,101386.37
2019-03-21T08:36:18.985Z,101358.77
2019-03-21T08:38:48.906Z,101346.99
2019-03-21T08:41:18.773Z,101357.80
2019-03-21T08:43:48.500Z,101346.02
2019-03-21T08:46:18.849Z,101344.19
2019-03-21T08:48:48.600Z,101335.34
2019-03-21T08:51:18.332Z,101331.74
2019-03-21T08:53:48.234Z,101325.09
2019-03-21T08:56:17.955Z,101334.86
2019-03-21T08:58:47.748Z,101310.88
2019-03-21T09:01:17.717Z,101314.59
2019-03-21T09:03:47.450Z,101306.21
2019-03-21T09:06:17.173Z,101304.84
2019-03-21T09:08:46.993Z,101310.81
2019-03-21T09:11:16.769Z,101304.25
2019-03-21T09:13:46.503Z,101207.94
2019-03-21T09:16:16.421Z,101310.91
2019-03-21T09:18:46.287Z,101306.77
2019-03-21T09:21:19.881Z,101299.06
2019-03-21T09:23:47.701Z,101300.02
2019-03-21T09:26:17.461Z,101347.62
2019-03-21T09:28:47.219Z,101297.19
2019-03-21T09:31:17.111Z,101299.11
2019-03-21T09:33:46.891Z,101300.89
2019-03-21T09:36:16.785Z,101297.11
2019-03-21T09:38:46.543Z,101296.88
2019-03-21T09:41:16.262Z,101298.73
2019-03-21T09:43:45.986Z,101288.82
2019-03-21T09:46:15.770Z,101293.77
2019-03-21T09:48:45.598Z,101308.34
2019-03-21T09:51:15.332Z,101283.50
2019-03-21T09:53:45.117Z,101289.27
2019-03-21T09:56:14.859Z,101287.61
2019-03-21T09:58:44.594Z,101284.23
2019-03-21T10:01:14.437Z,101282.16
2019-03-21T10:03:44.293Z,101292.81
2019-03-21T10:06:14.032Z,101271.53
2019-03-21T10:08:43.797Z,101273.31
2019-03-21T10:11:13.592Z,101271.23
2019-03-21T10:13:43.332Z,101278.31
2019-03-21T10:16:13.187Z,101271.42
2019-03-21T10:18:42.912Z,101282.42
2019-03-21T10:21:12.646Z,101266.02
2019-03-21T10:23:42.483Z,101267.03
2019-03-21T10:26:12.286Z,101278.58
2019-03-21T10:28:41.954Z,101267.70
2019-03-21T10:31:11.741Z,101277.45
2019-03-21T10:33:41.464Z,101269.25
2019-03-21T10:36:11.206Z,101269.30
2019-03-21T10:38:41.040Z,101262.05
2019-03-21T10:41:10.755Z,101260.45
2019-03-21T10:43:40.473Z,101257.05
2019-03-21T10:46:10.249Z,101258.42
2019-03-21T10:48:40.194Z,101253.25
2019-03-21T10:51:10.055Z,101251.16
2019-03-21T10:53:39.821Z,101256.87
2019-03-21T10:56:09.541Z,101248.78
2019-03-21T10:58:39.347Z,101248.78
2019-03-21T11:01:09.120Z,101259.91
2019-03-21T11:03:38.997Z,101245.98
2019-03-21T11:06:08.922Z,101238.95
2019-03-21T11:08:38.781Z,101238.95
2019-03-21T11:11:08.516Z,101241.33
2019-03-21T11:13:38.285Z,101242.70
2019-03-21T11:16:08.152Z,101242.70
2019-03-21T11:18:37.882Z,101247.87
2019-03-21T11:21:07.620Z,101248.93
2019-03-21T11:23:37.394Z,101248.93
2019-03-21T11:26:07.118Z,101257.07
2019-03-21T11:28:36.871Z,101247.59
2019-03-21T11:31:06.715Z,101257.47
2019-03-21T11:33:36.451Z,101239.66
2019-03-21T11:36:06.277Z,101245.73
2019-03-21T11:38:36.042Z,101245.73
2019-03-21T11:41:05.896Z,101244.59
2019-03-21T11:43:35.640Z,101243.50
2019-03-21T11:46:05.439Z,101241.56
2019-03-21T11:48:35.178Z,101253.54
2019-03-21T11:51:04.943Z,101253.54
2019-03-21T11:53:34.846Z,101285.84
2019-03-21T11:56:04.708Z,101241.69
2019-03-21T11:58:34.436Z,101231.83
2019-03-21T12:01:04.265Z,101245.21
2019-03-21T12:03:34.024Z,101231.78
2019-03-21T12:06:03.764Z,101236.19
2019-03-21T12:08:33.728Z,101233.05
2019-03-21T12:11:03.524Z,101235.24
2019-03-21T12:13:33.199Z,101245.78
2019-03-21T12:16:02.953Z,101232.98
2019-03-21T12:18:32.713Z,101241.64
2019-03-21T12:21:02.828Z,101241.64
2019-03-21T12:23:32.566Z,101246.41
2019-03-21T12:26:02.351Z,101280.03
2019-03-21T12:28:32.088Z,101255.43
2019-03-21T12:31:01.883Z,101258.58
2019-03-21T12:33:31.604Z,101252.77
2019-03-21T12:36:01.547Z,101264.14
2019-03-21T12:38:31.396Z,101257.84
2019-03-21T12:41:01.121Z,101253.54
2019-03-21T12:43:31.232Z,101262.01
2019-03-21T12:46:04.942Z,101267.45
2019-03-21T12:48:34.775Z,101270.63
2019-03-21T12:51:04.810Z,101266.44
2019-03-21T12:53:34.597Z,101277.12
2019-03-21T12:56:04.420Z,101267.30
2019-03-21T12:58:34.344Z,101284.64
2019-03-21T13:01:04.381Z,101283.16
2019-03-21T13:03:34.097Z,101278.94
2019-03-21T13:06:04.292Z,101287.03
2019-03-21T13:08:34.289Z,101262.34
2019-03-21T13:11:03.993Z,101285.67
2019-03-21T13:13:33.773Z,101289.00
2019-03-21T13:16:03.494Z,101279.19
2019-03-21T13:18:33.278Z,101275.14
2019-03-21T13:21:03.104Z,101277.22
2019-03-21T13:23:33.035Z,101287.22
2019-03-21T13:26:03.871Z,101301.92
2019-03-21T13:28:33.659Z,101292.58
2019-03-21T13:31:03.399Z,101279.66
2019-03-21T13:33:33.232Z,101285.31
2019-03-21T13:36:03.013Z,101281.80
2019-03-21T13:38:32.944Z,101283.11
2019-03-21T13:41:02.676Z,101275.61
2019-03-21T13:43:32.639Z,101276.80
2019-03-21T13:46:02.378Z,101283.34
2019-03-21T13:48:32.113Z,101258.00
2019-03-21T13:51:01.887Z,101265.86
2019-03-21T13:53:31.905Z,101268.06
2019-03-21T13:56:01.642Z,101271.16
2019-03-21T13:58:31.509Z,101270.32
2019-03-21T14:01:01.229Z,101274.31
2019-03-21T14:03:31.046Z,101271.27
2019-03-21T14:06:00.857Z,101272.28
2019-03-21T14:08:31.028Z,101273.12
2019-03-21T14:11:00.877Z,101273.59
2019-03-21T14:13:30.678Z,101277.16
2019-03-21T14:16:00.457Z,101268.06
2019-03-21T14:18:30.181Z,101260.74
2019-03-21T14:21:00.127Z,101279.61
2019-03-21T14:23:29.870Z,101263.06
2019-03-21T14:25:59.628Z,101271.09
2019-03-21T14:28:29.393Z,101274.25
2019-03-21T14:30:59.626Z,101277.87
2019-03-21T14:33:29.378Z,101269.30
2019-03-21T14:35:59.114Z,101277.70
2019-03-21T14:38:28.835Z,101271.68
2019-03-21T14:40:58.609Z,101272.33
2019-03-21T14:43:28.379Z,101273.51
2019-03-21T14:45:58.109Z,101264.17
2019-03-21T14:48:27.827Z,101266.56
2019-03-21T14:50:57.636Z,101278.95
2019-03-21T14:53:29.092Z,101264.91
2019-03-21T14:55:59.002Z,101277.16
2019-03-21T14:58:28.856Z,101275.61
2019-03-21T15:00:58.703Z,101277.98
2019-03-21T15:03:28.447Z,101301.70
2019-03-21T15:05:58.240Z,101293.92
2019-03-21T15:08:27.970Z,101293.20
2019-03-21T15:10:57.963Z,101288.89
2019-03-21T15:13:27.807Z,101311.25
2019-03-21T15:15:57.595Z,101294.20
2019-03-21T15:18:27.409Z,101302.31
2019-03-21T15:20:57.184Z,101307.05
2019-03-21T15:23:26.942Z,101297.78
2019-03-21T15:25:56.784Z,101311.78
2019-03-21T15:28:26.884Z,101323.75
2019-03-21T15:30:56.630Z,101327.91
2019-03-21T15:33:26.410Z,101328.55
2019-03-21T15:35:56.299Z,101327.88
2019-03-21T15:38:27.731Z,101343.66
2019-03-21T15:40:57.705Z,101328.16
2019-03-21T15:43:27.539Z,101329.23
2019-03-21T15:45:57.576Z,101338.86
2019-03-21T15:48:27.316Z,101337.07
2019-03-21T15:51:04.341Z,101349.83
2019-03-21T15:53:28.681Z,101351.59
2019-03-21T15:55:58.403Z,101358.27
2019-03-21T15:58:28.538Z,101360.42
2019-03-21T16:00:58.379Z,101361.63
2019-03-21T16:03:28.147Z,101351.77
2019-03-21T16:05:58.643Z,101360.80
2019-03-21T16:08:28.532Z,101368.33
2019-03-21T16:10:58.585Z,101371.53
2019-03-21T16:13:28.315Z,101368.75
2019-03-21T16:15:58.171Z,101365.61
2019-03-21T16:18:27.943Z,101361.42
2019-03-21T16:20:58.276Z,101369.50
2019-03-21T16:23:28.076Z,101380.11
2019-03-21T16:25:57.825Z,101372.64
2019-03-21T16:28:27.636Z,101384.70
2019-03-21T16:30:57.418Z,101378.09
2019-03-21T16:33:27.231Z,101381.87
2019-03-21T16:35:56.994Z,101386.39
2019-03-21T16:38:26.718Z,101391.28
2019-03-21T16:40:56.458Z,101396.69
2019-03-21T16:43:26.318Z,101391.22
2019-03-21T16:45:56.040Z,101404.25
2019-03-21T16:48:25.841Z,101413.81
2019-03-21T16:50:55.612Z,101415.59
2019-03-21T16:53:25.349Z,101431.39
2019-03-21T16:55:55.109Z,101431.97
2019-03-21T16:58:24.869Z,101443.97
2019-03-21T17:00:54.680Z,101455.08
2019-03-21T17:03:24.611Z,101465.35
2019-03-21T17:05:54.404Z,101470.25
2019-03-21T17:08:24.207Z,101474.81
2019-03-21T17:10:53.986Z,101470.27
2019-03-21T17:13:23.908Z,101473.92
2019-03-21T17:15:53.683Z,101482.81
2019-03-21T17:18:23.451Z,101483.92
2019-03-21T17:20:53.286Z,101489.77
2019-03-21T17:23:23.029Z,101491.42
2019-03-21T17:25:52.786Z,101495.06
2019-03-21T17:28:22.665Z,101496.65
2019-03-21T17:30:52.482Z,101501.81
2019-03-21T17:33:23.204Z,101505.59
2019-03-21T17:35:52.944Z,101514.27
2019-03-21T17:38:22.672Z,101513.44
2019-03-21T17:40:52.465Z,101514.81
2019-03-21T17:43:22.203Z,101519.22
2019-03-21T17:45:52.042Z,101516.19
2019-03-21T17:48:21.831Z,101517.91
2019-03-21T17:50:51.920Z,101523.08
2019-03-21T17:53:21.663Z,101524.23
2019-03-21T17:55:51.499Z,101523.61
2019-03-21T17:58:21.230Z,101531.17
2019-03-21T18:00:51.019Z,101526.14
2019-03-21T18:03:21.189Z,101531.98
2019-03-21T18:05:51.076Z,101540.98
2019-03-21T18:08:20.971Z,101538.97
2019-03-21T18:10:50.754Z,101540.40
2019-03-21T18:13:20.613Z,101533.98
2019-03-21T18:15:50.489Z,101531.44
2019-03-21T18:18:20.369Z,101528.34
2019-03-21T18:20:50.127Z,101532.61
2019-03-21T18:23:19.925Z,101536.42
2019-03-21T18:25:49.880Z,101538.06
2019-03-21T18:28:19.755Z,101527.46
2019-03-21T18:30:49.552Z,101533.36
2019-03-21T18:33:19.543Z,101530.94
2019-03-21T18:35:49.228Z,101543.36
2019-03-21T18:38:19.013Z,101459.42
2019-03-21T18:40:48.778Z,101554.97
2019-03-21T18:43:18.593Z,101461.22
2019-03-21T18:45:48.406Z,101580.91
2019-03-21T18:48:18.498Z,101580.57
2019-03-21T18:50:48.373Z,101584.64
2019-03-21T18:53:18.218Z,101596.21
2019-03-21T18:55:48.198Z,101612.45
2019-03-21T18:58:18.019Z,101625.44
2019-03-21T19:00:47.754Z,101635.23
2019-03-21T19:03:17.576Z,101645.02
2019-03-21T19:05:47.599Z,101633.81
2019-03-21T19:08:17.478Z,101650.05
2019-03-21T19:10:47.403Z,101665.73
2019-03-21T19:13:17.200Z,101669.98
2019-03-21T19:15:46.939Z,101698.02
2019-03-21T19:18:16.783Z,101715.67
2019-03-21T19:20:46.558Z,101744.81
2019-03-21T19:23:16.290Z,101767.45
2019-03-21T19:25:46.136Z,101783.85
2019-03-21T19:28:15.864Z,101789.09
2019-03-21T19:30:45.621Z,101794.38
2019-03-21T19:33:15.453Z,101799.81
2019-03-21T19:35:46.908Z,101810.14
2019-03-21T19:38:16.734Z,101813.14
2019-03-21T19:40:46.530Z,101816.70
2019-03-21T19:43:16.240Z,101826.70
2019-03-21T19:45:45.973Z,101843.79
2019-03-21T19:48:16.093Z,101838.80
2019-03-21T19:50:45.809Z,101852.25
2019-03-21T19:53:15.550Z,101867.00
2019-03-21T19:55:45.316Z,101876.03
2019-03-21T19:58:15.423Z,101879.45
2019-03-21T20:00:45.330Z,101898.52
2019-03-21T20:03:15.175Z,101913.27
2019-03-21T20:05:44.922Z,101917.89
2019-03-21T20:08:14.941Z,101927.24
2019-03-21T20:10:44.967Z,101921.84
2019-03-21T20:13:14.909Z,101946.43
2019-03-21T20:15:44.754Z,101975.92
2019-03-21T20:18:14.834Z,101979.83
2019-03-21T20:20:44.648Z,101589.47
2019-03-21T20:23:14.552Z,101998.30
2019-03-21T20:25:44.382Z,102000.41
2019-03-21T20:28:14.253Z,102009.94
2019-03-21T20:30:44.019Z,102015.15
2019-03-21T20:33:13.916Z,101997.80
2019-03-21T20:35:43.849Z,101987.38
2019-03-21T20:38:13.678Z,101990.69
2019-03-21T20:40:43.594Z,101995.09
2019-03-21T20:43:13.375Z,101908.97
2019-03-21T20:45:43.196Z,101794.97
2019-03-21T20:48:13.472Z,101954.81
2019-03-21T20:50:43.207Z,101965.05
2019-03-21T20:53:13.129Z,101959.55
2019-03-21T20:55:53.421Z,101962.37
2019-03-21T20:58:14.444Z,101973.30
2019-03-21T21:00:44.151Z,101972.31
2019-03-21T21:03:14.114Z,101994.58
2019-03-21T21:05:43.847Z,102003.91
2019-03-21T21:08:13.591Z,102008.12
2019-03-21T21:10:43.539Z,102021.86
2019-03-21T21:13:13.328Z,102027.08
2019-03-21T21:15:43.053Z,102029.68
2019-03-21T21:18:12.976Z,102053.73
2019-03-21T21:20:42.766Z,102044.61
2019-03-21T21:23:12.564Z,102031.67
2019-03-21T21:25:42.410Z,102031.77
2019-03-21T21:28:12.320Z,102047.91
2019-03-21T21:30:42.055Z,102056.94
2019-03-21T21:33:11.896Z,102076.69
2019-03-21T21:35:41.608Z,102082.10
2019-03-21T21:38:11.394Z,102072.28
2019-03-21T21:40:41.311Z,102092.44
2019-03-21T21:43:11.164Z,102091.64
2019-03-21T21:45:40.921Z,102090.84
2019-03-21T21:48:10.809Z,102092.55
2019-03-21T21:50:40.526Z,102094.95
2019-03-21T21:53:10.265Z,102112.47
2019-03-21T21:55:40.085Z,102112.97
2019-03-21T21:58:09.842Z,102113.17
2019-03-21T22:00:39.570Z,102117.87
2019-03-21T22:03:09.324Z,102123.19
2019-03-21T22:05:39.211Z,102141.91
2019-03-21T22:08:08.957Z,102147.53
2019-03-21T22:10:39.114Z,102163.95
2019-03-21T22:13:09.269Z,102181.19
2019-03-21T22:15:39.175Z,102180.48
2019-03-21T22:18:08.957Z,102180.99
2019-03-21T22:20:38.671Z,102193.01
2019-03-21T22:23:08.459Z,102188.20
2019-03-21T22:25:38.245Z,102197.81
2019-03-21T22:28:10.112Z,102210.04
2019-03-21T22:30:39.519Z,102215.94
2019-03-21T22:33:09.426Z,102213.03
2019-03-21T22:35:39.254Z,102205.11
2019-03-21T22:38:08.981Z,102200.30
2019-03-21T22:40:38.933Z,102195.89
2019-03-21T22:43:08.696Z,102203.50
2019-03-21T22:45:38.421Z,102217.42
2019-03-21T22:48:08.263Z,102226.53
2019-03-21T22:50:37.981Z,102233.44
2019-03-21T22:53:07.773Z,102244.76
2019-03-21T22:55:37.577Z,102247.77
2019-03-21T22:58:07.365Z,102257.17
2019-03-21T23:00:44.336Z,102278.91
2019-03-21T23:03:14.052Z,102283.39
2019-03-21T23:05:43.811Z,102275.88
2019-03-21T23:08:13.634Z,102277.87
2019-03-21T23:10:45.150Z,102283.87
2019-03-21T23:13:15.134Z,102279.35
2019-03-21T23:15:45.074Z,102291.11
2019-03-21T23:18:14.863Z,102306.01
2019-03-21T23:20:44.577Z,102324.30
2019-03-21T23:23:14.363Z,102334.17
2019-03-21T23:25:44.100Z,102347.53
2019-03-21T23:28:13.899Z,102362.09
2019-03-21T23:30:43.641Z,102374.94
2019-03-21T23:33:13.452Z,102383.25
2019-03-21T23:35:43.200Z,102380.48
2019-03-21T23:38:12.975Z,102391.53
2019-03-21T23:40:42.720Z,102397.47
2019-03-21T23:43:12.450Z,102395.20
2019-03-21T23:45:42.895Z,102400.16
2019-03-21T23:48:12.764Z,102399.81
2019-03-21T23:50:42.476Z,102405.18
2019-03-21T23:53:12.244Z,102422.35
2019-03-21T23:55:42.059Z,102428.85
2019-03-21T23:58:11.813Z,102432.36
